createdAt,value
2016-11-10T00:00:07.146Z,0
2016-11-10T00:01:16.105Z,0
2016-11-10T00:02:25.096Z,0
2016-11-10T00:03:34.678Z,0
2016-11-10T00:04:43.628Z,0
2016-11-10T00:05:52.244Z,0
2016-11-10T00:07:01.192Z,0
2016-11-10T00:08:10.246Z,0
2016-11-10T00:09:19.178Z,0
2016-11-10T00:10:27.798Z,0
2016-11-10T00:11:36.742Z,0
2016-11-10T00:12:45.698Z,0
2016-11-10T00:13:54.996Z,0
2016-11-10T00:15:03.980Z,0
2016-11-10T00:16:12.597Z,0
2016-11-10T00:17:21.535Z,0
2016-11-10T00:18:30.796Z,0
2016-11-10T00:19:39.780Z,0
2016-11-10T00:20:49.357Z,0
2016-11-10T00:21:58.290Z,0
2016-11-10T00:23:07.562Z,0
2016-11-10T00:24:16.510Z,0
2016-11-10T00:25:25.600Z,0
2016-11-10T00:26:34.542Z,0
2016-11-10T00:27:43.482Z,0
2016-11-10T00:28:52.748Z,0
2016-11-10T00:30:01.685Z,0
2016-11-10T00:31:10.677Z,0
2016-11-10T00:32:19.613Z,0
2016-11-10T00:33:28.553Z,0
2016-11-10T00:34:37.839Z,0
2016-11-10T00:35:47.102Z,0
2016-11-10T00:36:56.321Z,0
2016-11-10T00:38:05.588Z,0
2016-11-10T00:39:14.209Z,0
2016-11-10T00:40:22.821Z,0
2016-11-10T00:41:31.431Z,0
2016-11-10T00:42:40.423Z,0
2016-11-10T00:43:50.017Z,0
2016-11-10T00:44:58.959Z,0
2016-11-10T00:46:07.901Z,0
2016-11-10T00:47:16.837Z,0
2016-11-10T00:48:25.502Z,0
2016-11-10T00:49:34.770Z,0
2016-11-10T00:50:44.043Z,0
2016-11-10T00:51:52.976Z,0
2016-11-10T00:53:01.907Z,0
2016-11-10T00:54:10.775Z,0
2016-11-10T00:55:19.705Z,0
2016-11-10T00:56:28.320Z,0
2016-11-10T00:57:37.259Z,0
2016-11-10T00:58:45.885Z,0
2016-11-10T00:59:54.556Z,0
2016-11-10T01:01:03.502Z,0
2016-11-10T01:02:12.444Z,0
2016-11-10T01:03:21.740Z,0
2016-11-10T01:04:30.355Z,0
2016-11-10T01:05:39.348Z,0
2016-11-10T01:06:47.971Z,0
2016-11-10T01:07:57.227Z,0
2016-11-10T01:09:06.479Z,0
2016-11-10T01:10:15.423Z,0
2016-11-10T01:11:24.748Z,0
2016-11-10T01:12:33.401Z,0
2016-11-10T01:13:42.342Z,0
2016-11-10T01:14:51.283Z,0
2016-11-10T01:16:00.239Z,0
2016-11-10T01:17:08.918Z,0
2016-11-10T01:18:18.174Z,0
2016-11-10T01:19:26.794Z,0
2016-11-10T01:20:35.730Z,0
2016-11-10T01:21:44.669Z,0
2016-11-10T01:22:53.529Z,0
2016-11-10T01:24:02.156Z,0
2016-11-10T01:25:11.791Z,0
2016-11-10T01:26:20.765Z,0
2016-11-10T01:27:30.032Z,0
2016-11-10T01:28:39.812Z,0
2016-11-10T01:29:48.757Z,0
2016-11-10T01:30:57.366Z,0
2016-11-10T01:32:06.671Z,0
2016-11-10T01:33:15.607Z,0
2016-11-10T01:34:24.809Z,0
2016-11-10T01:35:33.431Z,0
2016-11-10T01:36:42.050Z,0
2016-11-10T01:37:51.032Z,0
2016-11-10T01:38:59.971Z,0
2016-11-10T01:40:08.959Z,0
2016-11-10T01:41:17.895Z,0
2016-11-10T01:42:26.846Z,0
2016-11-10T01:43:35.498Z,0
2016-11-10T01:44:44.121Z,0
2016-11-10T01:45:53.245Z,0
2016-11-10T01:47:02.508Z,0
2016-11-10T01:48:11.448Z,0
2016-11-10T01:49:20.076Z,0
2016-11-10T01:50:29.342Z,0
2016-11-10T01:51:38.458Z,0
2016-11-10T01:52:47.075Z,0
2016-11-10T01:53:56.347Z,0
2016-11-10T01:55:05.290Z,0
2016-11-10T01:56:13.909Z,0
2016-11-10T01:57:22.994Z,0
2016-11-10T01:58:31.935Z,0
2016-11-10T01:59:40.538Z,0
2016-11-10T02:00:49.157Z,0
2016-11-10T02:01:58.093Z,0
2016-11-10T02:03:07.094Z,0
2016-11-10T02:04:16.040Z,0
2016-11-10T02:05:25.256Z,0
2016-11-10T02:06:34.523Z,0
2016-11-10T02:07:43.786Z,0
2016-11-10T02:08:52.778Z,0
2016-11-10T02:10:02.337Z,0
2016-11-10T02:11:10.942Z,0
2016-11-10T02:12:19.865Z,0
2016-11-10T02:13:29.752Z,0
2016-11-10T02:14:38.779Z,0
2016-11-10T02:15:47.750Z,0
2016-11-10T02:16:56.370Z,0
2016-11-10T02:18:05.293Z,0
2016-11-10T02:19:14.541Z,0
2016-11-10T02:20:23.200Z,0
2016-11-10T02:21:32.457Z,0
2016-11-10T02:22:41.394Z,0
2016-11-10T02:23:50.003Z,0
2016-11-10T02:24:58.601Z,0
2016-11-10T02:26:07.265Z,0
2016-11-10T02:27:16.196Z,0
2016-11-10T02:28:25.121Z,0
2016-11-10T02:29:34.380Z,0
2016-11-10T02:30:43.684Z,0
2016-11-10T02:31:53.191Z,0
2016-11-10T02:33:01.797Z,0
2016-11-10T02:34:11.059Z,0
2016-11-10T02:35:19.672Z,0
2016-11-10T02:36:28.606Z,0
2016-11-10T02:37:37.776Z,0
2016-11-10T02:38:47.023Z,0
2016-11-10T02:39:56.271Z,0
2016-11-10T02:41:04.870Z,0
2016-11-10T02:42:13.480Z,0
2016-11-10T02:43:22.603Z,0
2016-11-10T02:44:31.534Z,0
2016-11-10T02:45:40.176Z,0
2016-11-10T02:46:49.454Z,0
2016-11-10T02:47:58.403Z,0
2016-11-10T02:49:08.178Z,0
2016-11-10T02:50:17.429Z,0
2016-11-10T02:51:26.675Z,0
2016-11-10T02:52:35.292Z,0
2016-11-10T02:53:44.225Z,0
2016-11-10T02:54:53.700Z,0
2016-11-10T02:56:02.960Z,0
2016-11-10T02:57:11.901Z,0
2016-11-10T02:58:21.146Z,0
2016-11-10T02:59:30.093Z,0
2016-11-10T03:00:39.444Z,0
2016-11-10T03:01:48.368Z,0
2016-11-10T03:02:56.973Z,0
2016-11-10T03:04:05.614Z,0
2016-11-10T03:05:14.890Z,0
2016-11-10T03:06:24.198Z,0
2016-11-10T03:07:33.114Z,0
2016-11-10T03:08:42.072Z,0
2016-11-10T03:09:51.666Z,0
2016-11-10T03:11:00.602Z,0
2016-11-10T03:12:09.903Z,0
2016-11-10T03:13:19.174Z,0
2016-11-10T03:14:28.440Z,0
2016-11-10T03:15:37.694Z,0
2016-11-10T03:16:46.302Z,0
2016-11-10T03:17:55.299Z,0
2016-11-10T03:19:04.272Z,0
2016-11-10T03:20:13.213Z,0
2016-11-10T03:21:22.779Z,0
2016-11-10T03:22:31.706Z,0
2016-11-10T03:23:40.823Z,0
2016-11-10T03:24:49.752Z,0
2016-11-10T03:25:58.677Z,0
2016-11-10T03:27:07.925Z,0
2016-11-10T03:28:16.852Z,0
2016-11-10T03:29:26.368Z,0
2016-11-10T03:30:35.638Z,0
2016-11-10T03:31:44.608Z,0
2016-11-10T03:32:53.219Z,0
2016-11-10T03:34:02.461Z,0
2016-11-10T03:35:11.117Z,0
2016-11-10T03:36:20.072Z,0
2016-11-10T03:37:29.314Z,0
2016-11-10T03:38:37.915Z,0
2016-11-10T03:39:46.833Z,0
2016-11-10T03:40:55.819Z,0
2016-11-10T03:42:05.065Z,0
2016-11-10T03:43:14.015Z,0
2016-11-10T03:44:22.619Z,0
2016-11-10T03:45:31.877Z,0
2016-11-10T03:46:41.169Z,0
2016-11-10T03:47:50.110Z,0
2016-11-10T03:48:59.686Z,0
2016-11-10T03:50:08.616Z,0
2016-11-10T03:51:17.553Z,0
2016-11-10T03:52:26.220Z,0
2016-11-10T03:53:34.821Z,0
2016-11-10T03:54:43.752Z,0
2016-11-10T03:55:52.690Z,0
2016-11-10T03:57:01.635Z,0
2016-11-10T03:58:11.098Z,0
2016-11-10T03:59:20.368Z,0
2016-11-10T04:00:28.980Z,0
2016-11-10T04:01:38.250Z,0
2016-11-10T04:02:46.865Z,0
2016-11-10T04:03:56.320Z,0
2016-11-10T04:05:05.574Z,0
2016-11-10T04:06:14.191Z,0
2016-11-10T04:07:23.125Z,0
2016-11-10T04:08:32.097Z,0
2016-11-10T04:09:41.534Z,0
2016-11-10T04:10:50.465Z,0
2016-11-10T04:11:59.703Z,0
2016-11-10T04:13:08.637Z,0
2016-11-10T04:14:17.883Z,0
2016-11-10T04:15:27.612Z,0
2016-11-10T04:16:36.538Z,0
2016-11-10T04:17:45.804Z,0
2016-11-10T04:18:54.418Z,0
2016-11-10T04:20:03.341Z,0
2016-11-10T04:21:12.335Z,0
2016-11-10T04:22:20.937Z,0
2016-11-10T04:23:30.515Z,0
2016-11-10T04:24:39.458Z,0
2016-11-10T04:25:48.400Z,0
2016-11-10T04:26:57.520Z,0
2016-11-10T04:28:06.772Z,0
2016-11-10T04:29:15.394Z,0
2016-11-10T04:30:24.003Z,0
2016-11-10T04:31:32.608Z,0
2016-11-10T04:32:41.941Z,0
2016-11-10T04:33:50.871Z,0
2016-11-10T04:35:00.127Z,0
2016-11-10T04:36:09.062Z,0
2016-11-10T04:37:17.989Z,0
2016-11-10T04:38:27.074Z,0
2016-11-10T04:39:36.004Z,0
2016-11-10T04:40:45.576Z,0
2016-11-10T04:41:54.194Z,0
2016-11-10T04:43:03.137Z,0
2016-11-10T04:44:11.792Z,0
2016-11-10T04:45:21.361Z,0
2016-11-10T04:46:30.301Z,0
2016-11-10T04:47:38.899Z,0
2016-11-10T04:48:48.155Z,0
2016-11-10T04:49:57.349Z,0
2016-11-10T04:51:06.602Z,0
2016-11-10T04:52:16.185Z,0
2016-11-10T04:53:25.115Z,0
2016-11-10T04:54:34.371Z,0
2016-11-10T04:55:43.786Z,0
2016-11-10T04:56:52.400Z,0
2016-11-10T04:58:01.332Z,0
2016-11-10T04:59:10.592Z,0
2016-11-10T05:00:19.845Z,0
2016-11-10T05:01:29.150Z,0
2016-11-10T05:02:37.752Z,0
2016-11-10T05:03:46.719Z,0
2016-11-10T05:04:55.659Z,0
2016-11-10T05:06:04.273Z,0
2016-11-10T05:07:13.565Z,0
2016-11-10T05:08:22.181Z,0
2016-11-10T05:09:30.790Z,0
2016-11-10T05:10:39.744Z,0
2016-11-10T05:11:48.362Z,0
2016-11-10T05:12:57.873Z,0
2016-11-10T05:14:06.476Z,0
2016-11-10T05:15:15.403Z,0
2016-11-10T05:16:24.005Z,0
2016-11-10T05:17:32.613Z,0
2016-11-10T05:18:41.605Z,0
2016-11-10T05:19:50.202Z,0
2016-11-10T05:20:59.460Z,0
2016-11-10T05:22:08.410Z,0
2016-11-10T05:23:17.350Z,0
2016-11-10T05:24:26.337Z,0
2016-11-10T05:25:35.267Z,0
2016-11-10T05:26:44.513Z,0
2016-11-10T05:27:54.100Z,0
2016-11-10T05:29:02.734Z,0
2016-11-10T05:30:11.728Z,0
2016-11-10T05:31:20.663Z,0
2016-11-10T05:32:29.912Z,0
2016-11-10T05:33:38.837Z,0
2016-11-10T05:34:47.446Z,0
2016-11-10T05:35:56.575Z,0
2016-11-10T05:37:05.184Z,0
2016-11-10T05:38:14.462Z,0
2016-11-10T05:39:23.721Z,0
2016-11-10T05:40:32.663Z,0
2016-11-10T05:41:41.973Z,0
2016-11-10T05:42:51.227Z,0
2016-11-10T05:44:00.475Z,0
2016-11-10T05:45:09.105Z,0
2016-11-10T05:46:18.045Z,0
2016-11-10T05:47:27.027Z,0
2016-11-10T05:48:35.965Z,0
2016-11-10T05:49:44.579Z,0
2016-11-10T05:50:53.526Z,0
2016-11-10T05:52:02.465Z,0
2016-11-10T05:53:11.549Z,0
2016-11-10T05:54:20.172Z,0
2016-11-10T05:55:28.784Z,0
2016-11-10T05:56:37.392Z,0
2016-11-10T05:57:46.666Z,0
2016-11-10T05:58:55.797Z,0
2016-11-10T06:00:04.735Z,0
2016-11-10T06:01:14.003Z,0
2016-11-10T06:02:23.261Z,0
2016-11-10T06:03:31.903Z,0
2016-11-10T06:04:40.610Z,0
2016-11-10T06:05:49.256Z,0
2016-11-10T06:06:58.188Z,0
2016-11-10T06:08:07.133Z,0
2016-11-10T06:09:15.743Z,0
2016-11-10T06:10:25.363Z,0
2016-11-10T06:11:34.302Z,0
2016-11-10T06:12:43.566Z,0
2016-11-10T06:13:52.497Z,0
2016-11-10T06:15:01.759Z,0
2016-11-10T06:16:11.273Z,0
2016-11-10T06:17:19.882Z,0
2016-11-10T06:18:28.491Z,0
2016-11-10T06:19:37.109Z,0
2016-11-10T06:20:46.049Z,0
2016-11-10T06:21:55.193Z,0
2016-11-10T06:23:03.805Z,0
2016-11-10T06:24:13.068Z,0
2016-11-10T06:25:21.679Z,0
2016-11-10T06:26:30.606Z,0
2016-11-10T06:27:39.278Z,0
2016-11-10T06:28:47.887Z,0
2016-11-10T06:29:56.492Z,0
2016-11-10T06:31:05.429Z,0
2016-11-10T06:32:14.368Z,0
2016-11-10T06:33:23.341Z,0
2016-11-10T06:34:32.593Z,0
2016-11-10T06:35:41.854Z,0
2016-11-10T06:36:50.472Z,0
2016-11-10T06:37:59.737Z,0
2016-11-10T06:39:08.916Z,0
2016-11-10T06:40:17.534Z,0
2016-11-10T06:41:27.111Z,0
2016-11-10T06:42:36.036Z,0
2016-11-10T06:43:44.978Z,5
2016-11-10T06:44:54.216Z,5
2016-11-10T06:46:03.164Z,5
2016-11-10T06:47:12.088Z,5
2016-11-10T06:48:21.671Z,5
2016-11-10T06:49:30.600Z,5
2016-11-10T06:50:39.593Z,10
2016-11-10T06:51:48.536Z,10
2016-11-10T06:52:57.463Z,10
2016-11-10T06:54:07.052Z,15
2016-11-10T06:55:15.675Z,15
2016-11-10T06:56:24.706Z,10
2016-11-10T06:57:33.632Z,15
2016-11-10T06:58:42.243Z,15
2016-11-10T06:59:50.864Z,20
2016-11-10T07:00:59.833Z,25
2016-11-10T07:02:09.141Z,25
2016-11-10T07:03:18.108Z,30
2016-11-10T07:04:27.374Z,30
2016-11-10T07:05:36.055Z,30
2016-11-10T07:06:45.637Z,30
2016-11-10T07:07:55.089Z,30
2016-11-10T07:09:03.698Z,30
2016-11-10T07:10:12.322Z,40
2016-11-10T07:11:21.250Z,45
2016-11-10T07:12:29.858Z,45
2016-11-10T07:13:38.945Z,50
2016-11-10T07:14:47.877Z,60
2016-11-10T07:15:56.819Z,65
2016-11-10T07:17:05.758Z,70
2016-11-10T07:18:15.021Z,80
2016-11-10T07:19:23.681Z,85
2016-11-10T07:20:32.601Z,90
2016-11-10T07:21:41.219Z,95
2016-11-10T07:22:50.168Z,95
2016-11-10T07:23:58.776Z,85
2016-11-10T07:25:07.905Z,65
2016-11-10T07:26:16.848Z,70
2016-11-10T07:27:25.461Z,85
2016-11-10T07:28:34.393Z,80
2016-11-10T07:29:43.667Z,80
2016-11-10T07:30:52.658Z,85
2016-11-10T07:32:01.274Z,80
2016-11-10T07:33:10.525Z,70
2016-11-10T07:34:19.123Z,65
2016-11-10T07:35:28.054Z,75
2016-11-10T07:36:37.039Z,80
2016-11-10T07:37:45.982Z,80
2016-11-10T07:38:54.925Z,80
2016-11-10T07:40:03.537Z,80
2016-11-10T07:41:12.800Z,80
2016-11-10T07:42:22.199Z,85
2016-11-10T07:43:30.802Z,90
2016-11-10T07:44:39.736Z,90
2016-11-10T07:45:48.360Z,85
2016-11-10T07:46:57.294Z,85
2016-11-10T07:48:06.288Z,80
2016-11-10T07:49:15.553Z,75
2016-11-10T07:50:24.488Z,75
2016-11-10T07:51:33.106Z,75
2016-11-10T07:52:42.030Z,75
2016-11-10T07:53:51.172Z,75
2016-11-10T07:54:59.785Z,80
2016-11-10T07:56:08.398Z,75
2016-11-10T07:57:17.011Z,80
2016-11-10T07:58:25.642Z,85
2016-11-10T07:59:34.307Z,95
2016-11-10T08:00:43.249Z,110
2016-11-10T08:01:51.856Z,125
2016-11-10T08:03:00.782Z,140
2016-11-10T08:04:10.057Z,150
2016-11-10T08:05:19.698Z,165
2016-11-10T08:06:28.984Z,175
2016-11-10T08:07:37.605Z,170
2016-11-10T08:08:46.533Z,155
2016-11-10T08:09:55.473Z,145
2016-11-10T08:11:04.249Z,140
2016-11-10T08:12:13.179Z,135
2016-11-10T08:13:21.802Z,135
2016-11-10T08:14:30.406Z,135
2016-11-10T08:15:39.032Z,140
2016-11-10T08:16:48.023Z,140
2016-11-10T08:17:56.961Z,135
2016-11-10T08:19:05.569Z,145
2016-11-10T08:20:14.189Z,135
2016-11-10T08:21:23.123Z,135
2016-11-10T08:22:32.586Z,145
2016-11-10T08:23:41.534Z,150
2016-11-10T08:24:50.468Z,150
2016-11-10T08:25:59.736Z,150
2016-11-10T08:27:08.352Z,145
2016-11-10T08:28:17.673Z,140
2016-11-10T08:29:26.925Z,130
2016-11-10T08:30:35.867Z,130
2016-11-10T08:31:45.151Z,135
2016-11-10T08:32:54.099Z,130
2016-11-10T08:34:03.019Z,130
2016-11-10T08:35:11.955Z,140
2016-11-10T08:36:20.898Z,150
2016-11-10T08:37:29.851Z,150
2016-11-10T08:38:38.827Z,145
2016-11-10T08:39:48.235Z,135
2016-11-10T08:40:57.809Z,150
2016-11-10T08:42:06.751Z,175
2016-11-10T08:43:16.024Z,190
2016-11-10T08:44:24.957Z,205
2016-11-10T08:45:34.354Z,210
2016-11-10T08:46:42.981Z,230
2016-11-10T08:47:51.592Z,270
2016-11-10T08:49:00.196Z,280
2016-11-10T08:50:09.138Z,285
2016-11-10T08:51:18.118Z,280
2016-11-10T08:52:27.365Z,275
2016-11-10T08:53:36.290Z,280
2016-11-10T08:54:45.236Z,280
2016-11-10T08:55:54.836Z,280
2016-11-10T08:57:03.647Z,290
2016-11-10T08:58:12.580Z,285
2016-11-10T08:59:21.204Z,265
2016-11-10T09:00:30.811Z,255
2016-11-10T09:01:40.074Z,260
2016-11-10T09:02:49.153Z,250
2016-11-10T09:03:58.409Z,240
2016-11-10T09:05:07.656Z,235
2016-11-10T09:06:16.630Z,235
2016-11-10T09:07:25.235Z,230
2016-11-10T09:08:34.311Z,225
2016-11-10T09:09:43.244Z,215
2016-11-10T09:10:52.222Z,215
2016-11-10T09:12:01.189Z,210
2016-11-10T09:13:09.819Z,210
2016-11-10T09:14:18.483Z,210
2016-11-10T09:15:27.104Z,205
2016-11-10T09:16:36.055Z,200
2016-11-10T09:17:45.004Z,205
2016-11-10T09:18:53.614Z,205
2016-11-10T09:20:02.599Z,205
2016-11-10T09:21:11.849Z,205
2016-11-10T09:22:20.467Z,205
2016-11-10T09:23:29.096Z,200
2016-11-10T09:24:38.033Z,175
2016-11-10T09:25:47.396Z,140
2016-11-10T09:26:56.339Z,120
2016-11-10T09:28:05.277Z,115
2016-11-10T09:29:14.535Z,120
2016-11-10T09:30:23.494Z,125
2016-11-10T09:31:32.877Z,145
2016-11-10T09:32:41.506Z,165
2016-11-10T09:33:50.782Z,200
2016-11-10T09:34:59.757Z,240
2016-11-10T09:36:08.368Z,265
2016-11-10T09:37:17.034Z,275
2016-11-10T09:38:25.644Z,265
2016-11-10T09:39:34.909Z,260
2016-11-10T09:40:43.835Z,270
2016-11-10T09:41:52.778Z,265
2016-11-10T09:43:01.858Z,225
2016-11-10T09:44:10.463Z,205
2016-11-10T09:45:19.080Z,200
2016-11-10T09:46:28.022Z,170
2016-11-10T09:47:36.959Z,150
2016-11-10T09:48:45.814Z,140
2016-11-10T09:49:55.394Z,145
2016-11-10T09:51:04.007Z,160
2016-11-10T09:52:12.621Z,175
2016-11-10T09:53:22.222Z,205
2016-11-10T09:54:30.904Z,220
2016-11-10T09:55:40.174Z,220
2016-11-10T09:56:49.460Z,215
2016-11-10T09:57:58.400Z,210
2016-11-10T09:59:07.356Z,195
2016-11-10T10:00:16.019Z,190
2016-11-10T10:01:24.980Z,190
2016-11-10T10:02:34.236Z,190
2016-11-10T10:03:42.890Z,190
2016-11-10T10:04:51.823Z,190
2016-11-10T10:06:01.152Z,205
2016-11-10T10:07:10.107Z,230
2016-11-10T10:08:19.382Z,245
2016-11-10T10:09:28.001Z,265
2016-11-10T10:10:37.253Z,295
2016-11-10T10:11:46.675Z,330
2016-11-10T10:12:55.928Z,350
2016-11-10T10:14:04.869Z,355
2016-11-10T10:15:14.439Z,340
2016-11-10T10:16:23.380Z,320
2016-11-10T10:17:33.008Z,320
2016-11-10T10:18:42.248Z,330
2016-11-10T10:19:51.513Z,325
2016-11-10T10:21:00.779Z,335
2016-11-10T10:22:09.401Z,335
2016-11-10T10:23:18.423Z,340
2016-11-10T10:24:27.347Z,340
2016-11-10T10:25:35.965Z,345
2016-11-10T10:26:44.897Z,350
2016-11-10T10:27:53.545Z,350
2016-11-10T10:29:02.546Z,340
2016-11-10T10:30:11.812Z,315
2016-11-10T10:31:20.428Z,305
2016-11-10T10:32:29.356Z,305
2016-11-10T10:33:37.990Z,310
2016-11-10T10:34:47.030Z,300
2016-11-10T10:35:55.648Z,275
2016-11-10T10:37:04.293Z,275
2016-11-10T10:38:13.544Z,290
2016-11-10T10:39:22.829Z,295
2016-11-10T10:40:32.800Z,290
2016-11-10T10:41:41.418Z,280
2016-11-10T10:42:50.385Z,265
2016-11-10T10:43:59.967Z,260
2016-11-10T10:45:09.214Z,275
2016-11-10T10:46:18.085Z,295
2016-11-10T10:47:27.021Z,310
2016-11-10T10:48:35.967Z,320
2016-11-10T10:49:45.231Z,330
2016-11-10T10:50:54.155Z,330
2016-11-10T10:52:02.875Z,315
2016-11-10T10:53:11.817Z,295
2016-11-10T10:54:20.441Z,285
2016-11-10T10:55:29.695Z,265
2016-11-10T10:56:38.666Z,250
2016-11-10T10:57:47.794Z,240
2016-11-10T10:58:57.041Z,250
2016-11-10T11:00:05.983Z,275
2016-11-10T11:01:14.914Z,300
2016-11-10T11:02:24.495Z,330
2016-11-10T11:03:33.159Z,370
2016-11-10T11:04:41.785Z,405
2016-11-10T11:05:51.056Z,425
2016-11-10T11:07:00.327Z,430
2016-11-10T11:08:08.945Z,415
2016-11-10T11:09:18.139Z,425
2016-11-10T11:10:27.413Z,435
2016-11-10T11:11:36.706Z,445
2016-11-10T11:12:45.323Z,405
2016-11-10T11:13:54.591Z,355
2016-11-10T11:15:03.904Z,320
2016-11-10T11:16:13.177Z,315
2016-11-10T11:17:22.132Z,325
2016-11-10T11:18:31.090Z,330
2016-11-10T11:19:40.369Z,340
2016-11-10T11:20:49.373Z,355
2016-11-10T11:21:57.997Z,355
2016-11-10T11:23:06.959Z,345
2016-11-10T11:24:15.601Z,350
2016-11-10T11:25:24.200Z,360
2016-11-10T11:26:33.255Z,360
2016-11-10T11:27:42.820Z,355
2016-11-10T11:28:51.768Z,345
2016-11-10T11:30:01.338Z,335
2016-11-10T11:31:10.615Z,340
2016-11-10T11:32:19.928Z,385
2016-11-10T11:33:28.556Z,415
2016-11-10T11:34:37.809Z,435
2016-11-10T11:35:46.754Z,460
2016-11-10T11:36:56.336Z,460
2016-11-10T11:38:04.998Z,460
2016-11-10T11:39:14.284Z,435
2016-11-10T11:40:23.237Z,385
2016-11-10T11:41:32.176Z,335
2016-11-10T11:42:41.472Z,315
2016-11-10T11:43:50.325Z,315
2016-11-10T11:44:59.262Z,315
2016-11-10T11:46:08.196Z,325
2016-11-10T11:47:17.141Z,335
2016-11-10T11:48:26.078Z,330
2016-11-10T11:49:35.247Z,325
2016-11-10T11:50:43.865Z,300
2016-11-10T11:51:52.496Z,290
2016-11-10T11:53:01.761Z,290
2016-11-10T11:54:10.681Z,295
2016-11-10T11:55:19.809Z,300
2016-11-10T11:56:28.454Z,300
2016-11-10T11:57:37.064Z,300
2016-11-10T11:58:46.337Z,315
2016-11-10T11:59:55.587Z,345
2016-11-10T12:01:04.795Z,395
2016-11-10T12:02:13.748Z,475
2016-11-10T12:03:22.682Z,550
2016-11-10T12:04:31.947Z,540
2016-11-10T12:05:40.880Z,485
2016-11-10T12:06:50.339Z,430
2016-11-10T12:07:59.283Z,385
2016-11-10T12:09:08.224Z,370
2016-11-10T12:10:18.161Z,380
2016-11-10T12:11:27.091Z,380
2016-11-10T12:12:35.907Z,375
2016-11-10T12:13:45.166Z,395
2016-11-10T12:14:54.102Z,410
2016-11-10T12:16:03.047Z,405
2016-11-10T12:17:11.990Z,390
2016-11-10T12:18:20.809Z,370
2016-11-10T12:19:29.760Z,340
2016-11-10T12:20:38.707Z,310
2016-11-10T12:21:47.642Z,295
2016-11-10T12:22:56.583Z,295
2016-11-10T12:24:05.249Z,305
2016-11-10T12:25:13.868Z,305
2016-11-10T12:26:22.808Z,290
2016-11-10T12:27:32.072Z,270
2016-11-10T12:28:41.053Z,255
2016-11-10T12:29:50.508Z,240
2016-11-10T12:30:59.443Z,240
2016-11-10T12:32:08.381Z,240
2016-11-10T12:33:17.333Z,225
2016-11-10T12:34:26.279Z,205
2016-11-10T12:35:35.371Z,190
2016-11-10T12:36:44.313Z,185
2016-11-10T12:37:54.201Z,195
2016-11-10T12:39:03.485Z,205
2016-11-10T12:40:13.085Z,220
2016-11-10T12:41:21.745Z,240
2016-11-10T12:42:30.683Z,265
2016-11-10T12:43:39.290Z,295
2016-11-10T12:44:48.533Z,315
2016-11-10T12:45:57.470Z,330
2016-11-10T12:47:06.783Z,335
2016-11-10T12:48:15.386Z,320
2016-11-10T12:49:24.656Z,300
2016-11-10T12:50:33.915Z,285
2016-11-10T12:51:43.196Z,265
2016-11-10T12:52:51.872Z,225
2016-11-10T12:54:00.491Z,185
2016-11-10T12:55:09.786Z,170
2016-11-10T12:56:18.737Z,150
2016-11-10T12:57:27.998Z,135
2016-11-10T12:58:37.239Z,125
2016-11-10T12:59:46.181Z,120
2016-11-10T13:00:54.800Z,115
2016-11-10T13:02:03.740Z,115
2016-11-10T13:03:12.352Z,120
2016-11-10T13:04:21.355Z,115
2016-11-10T13:05:30.299Z,110
2016-11-10T13:06:39.235Z,100
2016-11-10T13:07:48.837Z,90
2016-11-10T13:08:57.777Z,85
2016-11-10T13:10:06.584Z,85
2016-11-10T13:11:15.848Z,85
2016-11-10T13:12:24.818Z,90
2016-11-10T13:13:34.099Z,100
2016-11-10T13:14:43.681Z,110
2016-11-10T13:15:52.343Z,115
2016-11-10T13:17:00.968Z,120
2016-11-10T13:18:09.899Z,120
2016-11-10T13:19:19.197Z,115
2016-11-10T13:20:28.795Z,110
2016-11-10T13:21:38.450Z,115
2016-11-10T13:22:47.425Z,120
2016-11-10T13:23:56.353Z,130
2016-11-10T13:25:04.964Z,135
2016-11-10T13:26:13.905Z,130
2016-11-10T13:27:22.575Z,130
2016-11-10T13:28:31.522Z,135
2016-11-10T13:29:40.464Z,135
2016-11-10T13:30:49.740Z,145
2016-11-10T13:31:58.691Z,145
2016-11-10T13:33:08.280Z,145
2016-11-10T13:34:17.221Z,150
2016-11-10T13:35:26.530Z,155
2016-11-10T13:36:35.799Z,145
2016-11-10T13:37:44.736Z,130
2016-11-10T13:38:53.798Z,120
2016-11-10T13:40:03.086Z,115
2016-11-10T13:41:12.035Z,115
2016-11-10T13:42:20.971Z,120
2016-11-10T13:43:29.595Z,120
2016-11-10T13:44:38.677Z,120
2016-11-10T13:45:47.948Z,120
2016-11-10T13:46:56.884Z,120
2016-11-10T13:48:06.143Z,125
2016-11-10T13:49:15.417Z,120
2016-11-10T13:50:24.716Z,120
2016-11-10T13:51:33.970Z,115
2016-11-10T13:52:42.909Z,110
2016-11-10T13:53:52.503Z,105
2016-11-10T13:55:01.442Z,105
2016-11-10T13:56:10.215Z,115
2016-11-10T13:57:19.478Z,135
2016-11-10T13:58:28.419Z,140
2016-11-10T13:59:37.353Z,135
2016-11-10T14:00:46.286Z,125
2016-11-10T14:01:55.054Z,125
2016-11-10T14:03:04.972Z,135
2016-11-10T14:04:13.597Z,150
2016-11-10T14:05:23.182Z,150
2016-11-10T14:06:32.115Z,140
2016-11-10T14:07:41.162Z,140
2016-11-10T14:08:50.111Z,140
2016-11-10T14:09:58.723Z,145
2016-11-10T14:11:07.651Z,145
2016-11-10T14:12:16.285Z,130
2016-11-10T14:13:25.203Z,120
2016-11-10T14:14:34.177Z,120
2016-11-10T14:15:43.162Z,120
2016-11-10T14:16:51.774Z,110
2016-11-10T14:18:01.042Z,95
2016-11-10T14:19:10.664Z,80
2016-11-10T14:20:19.599Z,75
2016-11-10T14:21:28.201Z,70
2016-11-10T14:22:37.178Z,75
2016-11-10T14:23:45.783Z,75
2016-11-10T14:24:55.105Z,80
2016-11-10T14:26:04.033Z,80
2016-11-10T14:27:12.975Z,75
2016-11-10T14:28:21.949Z,70
2016-11-10T14:29:31.541Z,65
2016-11-10T14:30:40.354Z,70
2016-11-10T14:31:49.968Z,75
2016-11-10T14:32:58.926Z,80
2016-11-10T14:34:07.867Z,80
2016-11-10T14:35:16.815Z,75
2016-11-10T14:36:25.841Z,70
2016-11-10T14:37:35.093Z,65
2016-11-10T14:38:44.012Z,60
2016-11-10T14:39:52.624Z,55
2016-11-10T14:41:01.894Z,50
2016-11-10T14:42:10.699Z,50
2016-11-10T14:43:19.639Z,60
2016-11-10T14:44:28.600Z,65
2016-11-10T14:45:37.568Z,60
2016-11-10T14:46:46.854Z,50
2016-11-10T14:47:55.733Z,40
2016-11-10T14:49:04.993Z,40
2016-11-10T14:50:13.924Z,35
2016-11-10T14:51:22.870Z,40
2016-11-10T14:52:31.474Z,45
2016-11-10T14:53:40.614Z,45
2016-11-10T14:54:50.204Z,40
2016-11-10T14:55:59.473Z,35
2016-11-10T14:57:08.737Z,35
2016-11-10T14:58:17.711Z,30
2016-11-10T14:59:27.155Z,30
2016-11-10T15:00:36.329Z,25
2016-11-10T15:01:45.290Z,25
2016-11-10T15:02:55.154Z,25
2016-11-10T15:04:04.747Z,30
2016-11-10T15:05:13.874Z,30
2016-11-10T15:06:22.809Z,30
2016-11-10T15:07:31.423Z,25
2016-11-10T15:08:40.044Z,25
2016-11-10T15:09:49.310Z,25
2016-11-10T15:10:58.763Z,30
2016-11-10T15:12:07.726Z,30
2016-11-10T15:13:16.722Z,30
2016-11-10T15:14:25.857Z,30
2016-11-10T15:15:34.914Z,25
2016-11-10T15:16:44.353Z,25
2016-11-10T15:17:52.968Z,25
2016-11-10T15:19:01.893Z,20
2016-11-10T15:20:10.837Z,20
2016-11-10T15:21:20.100Z,15
2016-11-10T15:22:28.910Z,10
2016-11-10T15:23:38.168Z,10
2016-11-10T15:24:46.779Z,10
2016-11-10T15:25:55.703Z,10
2016-11-10T15:27:04.619Z,10
2016-11-10T15:28:14.040Z,5
2016-11-10T15:29:22.969Z,5
2016-11-10T15:30:31.572Z,5
2016-11-10T15:31:40.832Z,5
2016-11-10T15:32:49.794Z,5
2016-11-10T15:33:59.593Z,5
2016-11-10T15:35:08.195Z,0
2016-11-10T15:36:17.545Z,0
2016-11-10T15:37:27.116Z,0
2016-11-10T15:38:36.739Z,0
2016-11-10T15:39:45.728Z,0
2016-11-10T15:40:54.982Z,0
2016-11-10T15:42:03.594Z,0
2016-11-10T15:43:12.857Z,0
2016-11-10T15:44:22.103Z,0
2016-11-10T15:45:31.187Z,0
2016-11-10T15:46:40.154Z,0
2016-11-10T15:47:49.408Z,0
2016-11-10T15:48:58.025Z,0
2016-11-10T15:50:06.973Z,0
2016-11-10T15:51:16.384Z,0
2016-11-10T15:52:25.320Z,0
2016-11-10T15:53:33.937Z,0
2016-11-10T15:54:43.199Z,0
2016-11-10T15:55:52.127Z,0
2016-11-10T15:57:00.891Z,0
2016-11-10T15:58:09.500Z,0
2016-11-10T15:59:18.423Z,0
2016-11-10T16:00:27.385Z,0
2016-11-10T16:01:36.322Z,0
2016-11-10T16:02:45.246Z,0
2016-11-10T16:03:54.186Z,0
2016-11-10T16:05:03.439Z,0
2016-11-10T16:06:13.028Z,0
2016-11-10T16:07:22.610Z,0
2016-11-10T16:08:31.608Z,0
2016-11-10T16:09:40.544Z,0
2016-11-10T16:10:49.781Z,0
2016-11-10T16:11:58.741Z,0
2016-11-10T16:13:07.336Z,0
2016-11-10T16:14:16.320Z,0
2016-11-10T16:15:25.572Z,0
2016-11-10T16:16:34.859Z,0
2016-11-10T16:17:43.794Z,0
2016-11-10T16:18:53.703Z,0
2016-11-10T16:20:02.790Z,0
2016-11-10T16:21:11.402Z,0
2016-11-10T16:22:20.323Z,0
2016-11-10T16:23:29.255Z,0
2016-11-10T16:24:38.832Z,0
2016-11-10T16:25:48.384Z,0
2016-11-10T16:26:57.337Z,0